createdAt,value
2022-10-31T00:00:36.161Z,53.28
2022-10-31T00:01:36.105Z,53.62
2022-10-31T00:02:36.146Z,49.06
2022-10-31T00:03:36.113Z,47.80
2022-10-31T00:04:36.083Z,48.59
2022-10-31T00:05:36.072Z,51.71
2022-10-31T00:06:36.068Z,53.00
2022-10-31T00:07:36.101Z,50.44
2022-10-31T00:08:36.048Z,49.47
2022-10-31T00:09:36.044Z,49.82
2022-10-31T00:10:36.032Z,51.68
2022-10-31T00:11:36.041Z,49.87
2022-10-31T00:12:36.023Z,48.63
2022-10-31T00:13:36.037Z,54.77
2022-10-31T00:14:36.008Z,53.78
2022-10-31T00:15:36.002Z,51.67
2022-10-31T00:16:35.993Z,50.83
2022-10-31T00:17:35.999Z,51.08
2022-10-31T00:18:35.997Z,51.58
2022-10-31T00:19:35.975Z,48.29
2022-10-31T00:20:35.965Z,49.57
2022-10-31T00:21:35.958Z,53.70
2022-10-31T00:22:35.955Z,51.52
2022-10-31T00:23:35.949Z,53.61
2022-10-31T00:24:35.951Z,52.33
2022-10-31T00:25:35.933Z,52.75
2022-10-31T00:26:35.928Z,52.33
2022-10-31T00:27:35.924Z,49.89
2022-10-31T00:28:35.925Z,51.00
2022-10-31T00:29:35.923Z,53.97
2022-10-31T00:30:35.904Z,52.84
2022-10-31T00:31:35.912Z,54.78
2022-10-31T00:32:35.883Z,52.92
2022-10-31T00:33:35.874Z,47.57
2022-10-31T00:34:35.891Z,48.54
2022-10-31T00:35:35.859Z,52.61
2022-10-31T00:36:35.868Z,51.40
2022-10-31T00:37:35.847Z,51.18
2022-10-31T00:38:35.839Z,51.07
2022-10-31T00:39:35.843Z,48.24
2022-10-31T00:40:35.840Z,49.05
2022-10-31T00:41:35.812Z,50.54
2022-10-31T00:42:35.821Z,49.87
2022-10-31T00:43:35.806Z,49.99
2022-10-31T00:44:35.795Z,50.33
2022-10-31T00:45:35.803Z,48.87
2022-10-31T00:46:35.795Z,48.64
2022-10-31T00:47:35.787Z,53.62
2022-10-31T00:48:35.800Z,47.28
2022-10-31T00:49:35.762Z,48.64
2022-10-31T00:50:35.755Z,47.52
2022-10-31T00:51:35.792Z,50.99
2022-10-31T00:52:35.747Z,53.00
2022-10-31T00:53:35.742Z,47.68
2022-10-31T00:54:35.726Z,52.53
2022-10-31T00:55:35.728Z,49.35
2022-10-31T00:56:35.714Z,49.76
2022-10-31T00:57:35.727Z,53.63
2022-10-31T00:58:35.711Z,51.36
2022-10-31T00:59:35.699Z,50.77
2022-10-31T01:00:35.696Z,53.57
2022-10-31T01:01:35.808Z,50.55
2022-10-31T01:02:35.865Z,47.08
2022-10-31T01:03:35.664Z,46.70
2022-10-31T01:04:35.669Z,49.57
2022-10-31T01:05:35.665Z,49.25
2022-10-31T01:06:35.644Z,51.41
2022-10-31T01:07:35.636Z,53.74
2022-10-31T01:08:35.649Z,49.64
2022-10-31T01:09:35.628Z,46.59
2022-10-31T01:10:35.622Z,53.01
2022-10-31T01:11:35.615Z,48.67
2022-10-31T01:12:35.620Z,46.78
2022-10-31T01:13:35.611Z,48.23
2022-10-31T01:14:35.592Z,47.28
2022-10-31T01:15:35.583Z,47.67
2022-10-31T01:16:35.588Z,53.06
2022-10-31T01:17:35.588Z,51.32
2022-10-31T01:18:35.587Z,47.19
2022-10-31T01:19:35.564Z,53.07
2022-10-31T01:20:35.560Z,49.71
2022-10-31T01:21:35.554Z,50.90
2022-10-31T01:22:35.556Z,48.03
2022-10-31T01:23:35.554Z,52.30
2022-10-31T01:24:35.536Z,49.24
2022-10-31T01:25:35.519Z,46.23
2022-10-31T01:26:35.514Z,47.02
2022-10-31T01:27:35.506Z,52.68
2022-10-31T01:28:35.511Z,50.64
2022-10-31T01:29:35.538Z,51.84
2022-10-31T01:30:35.491Z,50.11
2022-10-31T01:31:35.487Z,56.29
2022-10-31T01:32:35.527Z,53.63
2022-10-31T01:33:35.479Z,48.44
2022-10-31T01:34:35.467Z,47.64
2022-10-31T01:35:35.460Z,48.33
2022-10-31T01:36:35.458Z,52.22
2022-10-31T01:37:35.451Z,53.33
2022-10-31T01:38:35.454Z,48.31
2022-10-31T01:39:35.461Z,48.43
2022-10-31T01:40:35.424Z,52.16
2022-10-31T01:41:35.420Z,50.63
2022-10-31T01:42:35.399Z,47.56
2022-10-31T01:43:35.428Z,46.48
2022-10-31T01:44:35.400Z,50.14
2022-10-31T01:45:35.386Z,53.20
2022-10-31T01:46:35.383Z,48.21
2022-10-31T01:47:35.383Z,51.27
2022-10-31T01:48:35.362Z,53.03
2022-10-31T01:49:35.379Z,53.29
2022-10-31T01:50:35.360Z,49.59
2022-10-31T01:51:35.352Z,52.03
2022-10-31T01:52:35.347Z,53.71
2022-10-31T01:53:35.343Z,46.83
2022-10-31T01:54:35.331Z,52.33
2022-10-31T01:55:35.327Z,52.99
2022-10-31T01:56:35.327Z,53.54
2022-10-31T01:57:35.299Z,49.85
2022-10-31T01:58:35.317Z,50.91
2022-10-31T01:59:35.316Z,50.51
2022-10-31T02:00:35.297Z,53.33
2022-10-31T02:01:35.425Z,48.21
2022-10-31T02:02:35.467Z,47.38
2022-10-31T02:03:35.275Z,49.00
2022-10-31T02:04:35.259Z,46.35
2022-10-31T02:05:35.290Z,50.62
2022-10-31T02:06:35.252Z,54.12
2022-10-31T02:07:35.240Z,51.75
2022-10-31T02:08:35.239Z,56.11
2022-10-31T02:09:35.237Z,49.20
2022-10-31T02:10:35.246Z,49.32
2022-10-31T02:11:35.220Z,50.57
2022-10-31T02:12:35.220Z,51.19
2022-10-31T02:13:35.207Z,53.17
2022-10-31T02:14:35.205Z,51.06
2022-10-31T02:15:35.198Z,49.13
2022-10-31T02:16:35.186Z,50.64
2022-10-31T02:17:35.180Z,51.49
2022-10-31T02:18:35.179Z,54.14
2022-10-31T02:19:35.159Z,53.45
2022-10-31T02:20:35.180Z,46.77
2022-10-31T02:21:35.173Z,48.12
2022-10-31T02:22:35.147Z,49.42
2022-10-31T02:23:35.134Z,51.95
2022-10-31T02:24:35.139Z,48.66
2022-10-31T02:25:35.121Z,50.20
2022-10-31T02:26:35.128Z,53.36
2022-10-31T02:27:35.110Z,48.66
2022-10-31T02:28:35.109Z,48.80
2022-10-31T02:29:35.093Z,53.14
2022-10-31T02:30:35.104Z,54.57
2022-10-31T02:31:35.100Z,50.72
2022-10-31T02:32:35.081Z,47.01
2022-10-31T02:33:35.072Z,47.23
2022-10-31T02:34:35.072Z,48.90
2022-10-31T02:35:35.055Z,52.00
2022-10-31T02:36:35.054Z,55.28
2022-10-31T02:37:35.055Z,54.48
2022-10-31T02:38:35.039Z,48.64
2022-10-31T02:39:35.036Z,54.46
2022-10-31T02:40:35.028Z,53.43
2022-10-31T02:41:35.011Z,49.61
2022-10-31T02:42:35.036Z,52.65
2022-10-31T02:43:35.007Z,55.67
2022-10-31T02:44:35.005Z,53.14
2022-10-31T02:45:34.994Z,51.54
2022-10-31T02:46:34.989Z,54.80
2022-10-31T02:47:34.988Z,54.69
2022-10-31T02:48:34.985Z,54.93
2022-10-31T02:49:34.972Z,51.60
2022-10-31T02:50:34.963Z,46.45
2022-10-31T02:51:34.952Z,48.07
2022-10-31T02:52:34.956Z,54.55
2022-10-31T02:53:34.959Z,49.50
2022-10-31T02:54:34.939Z,48.15
2022-10-31T02:55:34.937Z,46.98
2022-10-31T02:56:34.923Z,46.16
2022-10-31T02:57:34.919Z,48.67
2022-10-31T02:58:34.944Z,50.55
2022-10-31T02:59:34.913Z,53.74
2022-10-31T03:00:34.901Z,49.78
2022-10-31T03:01:35.010Z,50.21
2022-10-31T03:02:35.010Z,51.67
2022-10-31T03:03:34.895Z,52.91
2022-10-31T03:04:34.870Z,50.57
2022-10-31T03:05:34.854Z,50.03
2022-10-31T03:06:34.869Z,47.34
2022-10-31T03:07:34.854Z,47.16
2022-10-31T03:08:34.846Z,46.68
2022-10-31T03:09:34.854Z,51.14
2022-10-31T03:10:34.839Z,49.85
2022-10-31T03:11:34.830Z,47.99
2022-10-31T03:12:34.817Z,49.02
2022-10-31T03:13:34.815Z,47.25
2022-10-31T03:14:34.803Z,47.61
2022-10-31T03:15:35.798Z,48.93
2022-10-31T03:16:34.798Z,46.61
2022-10-31T03:17:34.785Z,48.76
2022-10-31T03:18:34.785Z,47.00
2022-10-31T03:19:34.795Z,52.08
2022-10-31T03:20:34.752Z,52.65
2022-10-31T03:21:34.759Z,51.01
2022-10-31T03:22:34.750Z,54.00
2022-10-31T03:23:34.787Z,53.27
2022-10-31T03:24:34.750Z,46.67
2022-10-31T03:25:34.731Z,52.06
2022-10-31T03:26:34.718Z,53.45
2022-10-31T03:27:34.712Z,54.77
2022-10-31T03:28:34.707Z,53.73
2022-10-31T03:29:34.711Z,53.29
2022-10-31T03:30:34.690Z,52.83
2022-10-31T03:31:34.682Z,49.29
2022-10-31T03:32:34.670Z,49.76
2022-10-31T03:33:34.664Z,52.15
2022-10-31T03:34:34.679Z,51.24
2022-10-31T03:35:34.686Z,49.15
2022-10-31T03:36:34.666Z,55.73
2022-10-31T03:37:34.650Z,52.25
2022-10-31T03:38:34.634Z,52.39
2022-10-31T03:39:34.627Z,53.96
2022-10-31T03:40:34.623Z,54.58
2022-10-31T03:41:34.617Z,52.93
2022-10-31T03:42:34.615Z,53.64
2022-10-31T03:43:34.602Z,55.81
2022-10-31T03:44:35.615Z,52.15
2022-10-31T03:45:34.595Z,53.99
2022-10-31T03:46:34.583Z,54.77
2022-10-31T03:47:34.584Z,53.05
2022-10-31T03:48:34.582Z,53.53
2022-10-31T03:49:34.574Z,54.07
2022-10-31T03:50:34.563Z,53.60
2022-10-31T03:51:34.575Z,54.23
2022-10-31T03:52:34.539Z,55.90
2022-10-31T03:53:34.544Z,53.85
2022-10-31T03:54:34.535Z,53.05
2022-10-31T03:55:34.559Z,57.83
2022-10-31T03:56:34.531Z,56.65
2022-10-31T03:57:34.570Z,60.87
2022-10-31T03:58:34.506Z,56.36
2022-10-31T03:59:34.494Z,55.16
2022-10-31T04:00:34.487Z,57.23
2022-10-31T04:01:34.559Z,55.50
2022-10-31T04:02:34.721Z,51.35
2022-10-31T04:03:34.483Z,51.12
2022-10-31T04:04:34.477Z,53.16
2022-10-31T04:05:34.475Z,55.84
2022-10-31T04:06:34.478Z,55.64
2022-10-31T04:07:34.443Z,54.75
2022-10-31T04:08:34.442Z,54.17
2022-10-31T04:09:34.438Z,55.35
2022-10-31T04:10:34.425Z,56.85
2022-10-31T04:11:34.445Z,54.79
2022-10-31T04:12:34.410Z,56.90
2022-10-31T04:13:34.406Z,57.78
2022-10-31T04:14:34.401Z,57.21
2022-10-31T04:15:34.401Z,57.17
2022-10-31T04:16:34.401Z,57.21
2022-10-31T04:17:34.403Z,57.39
2022-10-31T04:18:34.378Z,56.41
2022-10-31T04:19:34.363Z,57.32
2022-10-31T04:20:34.343Z,55.99
2022-10-31T04:21:35.349Z,56.69
2022-10-31T04:22:34.349Z,58.14
2022-10-31T04:23:34.346Z,57.79
2022-10-31T04:24:34.321Z,58.93
2022-10-31T04:25:34.318Z,60.19
2022-10-31T04:26:34.309Z,58.60
2022-10-31T04:27:34.318Z,57.19
2022-10-31T04:28:34.301Z,54.73
2022-10-31T04:29:34.300Z,55.39
2022-10-31T04:30:34.289Z,56.13
2022-10-31T04:31:34.277Z,56.30
2022-10-31T04:32:34.294Z,55.90
2022-10-31T04:33:34.267Z,57.71
2022-10-31T04:34:34.246Z,57.05
2022-10-31T04:35:35.238Z,57.41
2022-10-31T04:36:34.246Z,58.87
2022-10-31T04:37:34.250Z,58.49
2022-10-31T04:38:34.230Z,57.16
2022-10-31T04:39:34.227Z,58.08
2022-10-31T04:40:34.229Z,57.52
2022-10-31T04:41:34.206Z,59.69
2022-10-31T04:42:34.207Z,59.32
2022-10-31T04:43:34.294Z,58.93
2022-10-31T04:44:34.188Z,59.10
2022-10-31T04:45:34.182Z,59.85
2022-10-31T04:46:34.166Z,58.81
2022-10-31T04:47:34.166Z,57.12
2022-10-31T04:48:34.210Z,59.21
2022-10-31T04:49:34.150Z,59.28
2022-10-31T04:50:34.142Z,59.06
2022-10-31T04:51:34.142Z,59.51
2022-10-31T04:52:34.133Z,58.22
2022-10-31T04:53:34.134Z,59.03
2022-10-31T04:54:34.124Z,59.20
2022-10-31T04:55:34.114Z,58.88
2022-10-31T04:56:34.105Z,58.48
2022-10-31T04:57:34.101Z,58.09
2022-10-31T04:58:34.156Z,56.46
2022-10-31T04:59:34.083Z,55.98
2022-10-31T05:00:34.073Z,55.96
2022-10-31T05:01:34.150Z,56.45
2022-10-31T05:02:34.064Z,58.08
2022-10-31T05:03:34.065Z,57.77
2022-10-31T05:04:34.046Z,56.70
2022-10-31T05:05:34.043Z,56.03
2022-10-31T05:06:34.037Z,56.36
2022-10-31T05:07:34.046Z,55.39
2022-10-31T05:08:34.026Z,56.74
2022-10-31T05:09:34.033Z,58.12
2022-10-31T05:10:34.007Z,58.73
2022-10-31T05:11:34.001Z,59.34
2022-10-31T05:12:33.993Z,59.46
2022-10-31T05:13:33.974Z,58.77
2022-10-31T05:14:33.985Z,60.00
2022-10-31T05:15:33.975Z,61.03
2022-10-31T05:16:33.968Z,62.71
2022-10-31T05:17:33.958Z,59.17
2022-10-31T05:18:33.949Z,58.68
2022-10-31T05:19:33.945Z,60.04
2022-10-31T05:20:33.944Z,59.41
2022-10-31T05:21:33.922Z,60.24
2022-10-31T05:22:33.926Z,60.81
2022-10-31T05:23:33.912Z,60.59
2022-10-31T05:24:33.918Z,59.21
2022-10-31T05:25:33.917Z,58.86
2022-10-31T05:26:33.899Z,58.80
2022-10-31T05:27:33.890Z,58.59
2022-10-31T05:28:33.877Z,58.88
2022-10-31T05:29:33.874Z,58.39
2022-10-31T05:30:33.877Z,60.83
2022-10-31T05:31:33.857Z,60.64
2022-10-31T05:32:33.854Z,60.69
2022-10-31T05:33:33.844Z,61.24
2022-10-31T05:34:33.838Z,62.00
2022-10-31T05:35:33.854Z,61.79
2022-10-31T05:36:33.853Z,61.01
2022-10-31T05:37:33.821Z,62.98
2022-10-31T05:38:33.805Z,61.76
2022-10-31T05:39:33.800Z,61.66
2022-10-31T05:40:33.800Z,62.41
2022-10-31T05:41:33.786Z,61.84
2022-10-31T05:42:33.786Z,61.38
2022-10-31T05:43:33.774Z,61.74
2022-10-31T05:44:33.769Z,60.99
2022-10-31T05:45:33.772Z,61.08
2022-10-31T05:47:33.754Z,60.91
2022-10-31T05:48:33.749Z,61.31
2022-10-31T05:49:33.737Z,60.99
2022-10-31T05:50:33.717Z,60.72
2022-10-31T05:51:33.721Z,59.99
2022-10-31T05:52:33.713Z,61.50
2022-10-31T05:53:33.708Z,60.59
2022-10-31T05:54:33.705Z,61.06
2022-10-31T05:55:33.692Z,62.45
2022-10-31T05:56:33.683Z,61.18
2022-10-31T05:57:33.690Z,59.98
2022-10-31T05:58:33.674Z,60.99
2022-10-31T05:59:33.653Z,59.83
2022-10-31T06:00:33.660Z,59.62
2022-10-31T06:01:33.725Z,59.33
2022-10-31T06:02:33.630Z,59.50
2022-10-31T06:03:33.626Z,59.35
2022-10-31T06:04:33.674Z,61.13
2022-10-31T06:05:33.617Z,59.03
2022-10-31T06:06:33.605Z,58.98
2022-10-31T06:07:33.617Z,58.99
2022-10-31T06:08:33.596Z,59.11
2022-10-31T06:09:33.584Z,60.41
2022-10-31T06:10:33.584Z,60.03
2022-10-31T06:11:33.577Z,60.28
2022-10-31T06:12:33.564Z,59.44
2022-10-31T06:13:33.570Z,59.62
2022-10-31T06:14:33.540Z,59.03
2022-10-31T06:15:33.544Z,58.80
2022-10-31T06:16:33.537Z,59.08
2022-10-31T06:17:33.556Z,59.83
2022-10-31T06:18:33.509Z,59.19
2022-10-31T06:19:33.519Z,60.05
2022-10-31T06:20:33.510Z,59.83
2022-10-31T06:21:33.505Z,59.04
2022-10-31T06:22:33.514Z,59.11
2022-10-31T06:23:33.509Z,58.94
2022-10-31T06:24:33.481Z,58.90
2022-10-31T06:25:33.472Z,59.96
2022-10-31T06:26:33.477Z,59.81
2022-10-31T06:27:33.473Z,59.88
2022-10-31T06:28:33.469Z,59.96
2022-10-31T06:29:33.436Z,60.93
2022-10-31T06:30:33.441Z,60.15
2022-10-31T06:31:33.444Z,60.89
2022-10-31T06:32:33.425Z,58.87
2022-10-31T06:33:33.447Z,59.60
2022-10-31T06:34:33.413Z,58.58
2022-10-31T06:35:33.411Z,60.10
2022-10-31T06:36:33.403Z,60.10
2022-10-31T06:37:33.389Z,58.65
2022-10-31T06:38:33.405Z,60.03
2022-10-31T06:39:33.401Z,59.56
2022-10-31T06:40:33.378Z,58.48
2022-10-31T06:41:33.366Z,60.20
2022-10-31T06:42:33.352Z,60.05
2022-10-31T06:43:33.355Z,59.87
2022-10-31T06:44:33.347Z,59.37
2022-10-31T06:45:33.359Z,60.11
2022-10-31T06:46:33.329Z,59.88
2022-10-31T06:47:35.331Z,59.75
2022-10-31T06:48:34.328Z,59.55
2022-10-31T06:49:33.297Z,60.36
2022-10-31T06:50:33.322Z,60.06
2022-10-31T06:51:33.296Z,59.64
2022-10-31T06:52:33.272Z,58.97
2022-10-31T06:53:33.290Z,60.41
2022-10-31T06:54:33.275Z,60.68
2022-10-31T06:55:33.250Z,60.47
2022-10-31T06:56:33.256Z,61.65
2022-10-31T06:57:33.244Z,60.86
2022-10-31T06:58:33.249Z,60.31
2022-10-31T06:59:33.236Z,59.46
2022-10-31T07:00:33.224Z,60.74
2022-10-31T07:01:33.366Z,60.21
2022-10-31T07:02:33.322Z,59.58
2022-10-31T07:03:33.204Z,59.71
2022-10-31T07:04:33.198Z,61.06
2022-10-31T07:05:33.184Z,60.91
2022-10-31T07:06:33.192Z,60.13
2022-10-31T07:07:33.164Z,61.89
2022-10-31T07:08:33.168Z,63.16
2022-10-31T07:09:33.185Z,62.81
2022-10-31T07:10:35.710Z,60.17
2022-10-31T07:11:34.158Z,60.22
2022-10-31T07:12:33.144Z,60.25
2022-10-31T07:13:33.124Z,59.69
2022-10-31T07:14:33.143Z,58.75
2022-10-31T07:15:33.119Z,59.80
2022-10-31T07:16:33.116Z,58.58
2022-10-31T07:17:33.108Z,61.82
2022-10-31T07:18:33.100Z,59.31
2022-10-31T07:19:33.092Z,58.46
2022-10-31T07:20:33.084Z,60.29
2022-10-31T07:21:33.086Z,59.21
2022-10-31T07:22:33.068Z,59.33
2022-10-31T07:23:33.075Z,58.60
2022-10-31T07:24:34.960Z,58.64
2022-10-31T07:25:33.061Z,60.67
2022-10-31T07:26:33.039Z,57.85
2022-10-31T07:27:33.043Z,58.95
2022-10-31T07:28:33.032Z,57.63
2022-10-31T07:29:33.027Z,58.66
2022-10-31T07:30:33.032Z,60.46
2022-10-31T07:31:33.008Z,58.91
2022-10-31T07:32:33.037Z,59.62
2022-10-31T07:33:34.004Z,59.98
2022-10-31T07:34:32.991Z,60.22
2022-10-31T07:35:32.996Z,60.51
2022-10-31T07:36:32.979Z,59.29
2022-10-31T07:37:32.979Z,59.06
2022-10-31T07:38:32.972Z,58.42
2022-10-31T07:39:32.955Z,60.36
2022-10-31T07:40:32.967Z,58.88
2022-10-31T07:41:32.954Z,58.36
2022-10-31T07:42:32.940Z,58.37
2022-10-31T07:43:32.931Z,58.35
2022-10-31T07:44:32.922Z,60.12
2022-10-31T07:45:32.912Z,59.48
2022-10-31T07:46:32.924Z,58.80
2022-10-31T07:47:32.896Z,57.08
2022-10-31T07:48:32.895Z,58.39
2022-10-31T07:49:32.890Z,59.61
2022-10-31T07:50:32.875Z,58.53
2022-10-31T07:51:32.888Z,58.50
2022-10-31T07:52:32.863Z,58.62
2022-10-31T07:53:32.856Z,57.02
2022-10-31T07:54:32.843Z,58.63
2022-10-31T07:55:32.835Z,58.83
2022-10-31T07:56:32.831Z,57.43
2022-10-31T07:57:34.753Z,56.69
2022-10-31T07:58:33.821Z,56.39
2022-10-31T07:59:32.827Z,55.80
2022-10-31T08:00:32.836Z,56.31
2022-10-31T08:01:32.805Z,56.11
2022-10-31T08:02:32.817Z,55.87
2022-10-31T08:03:32.786Z,55.58
2022-10-31T08:04:32.784Z,56.09
2022-10-31T08:05:32.772Z,58.27
2022-10-31T08:06:32.771Z,57.73
2022-10-31T08:07:32.792Z,58.54
2022-10-31T08:08:34.714Z,57.60
2022-10-31T08:09:33.748Z,56.45
2022-10-31T08:10:32.733Z,56.68
2022-10-31T08:11:32.734Z,57.23
2022-10-31T08:12:32.717Z,54.99
2022-10-31T08:13:32.730Z,55.19
2022-10-31T08:14:32.707Z,55.24
2022-10-31T08:15:32.698Z,56.55
2022-10-31T08:16:32.723Z,56.03
2022-10-31T08:17:32.686Z,55.87
2022-10-31T08:18:32.691Z,55.76
2022-10-31T08:19:32.669Z,56.15
2022-10-31T08:20:32.698Z,54.81
2022-10-31T08:21:32.677Z,56.24
2022-10-31T08:22:32.651Z,54.66
2022-10-31T08:23:32.674Z,54.87
2022-10-31T08:24:32.690Z,54.08
2022-10-31T08:25:35.598Z,54.95
2022-10-31T08:26:33.629Z,54.97
2022-10-31T08:27:32.607Z,55.41
2022-10-31T08:28:32.619Z,55.40
2022-10-31T08:29:32.604Z,55.23
2022-10-31T08:30:32.595Z,54.11
2022-10-31T08:31:35.009Z,56.80
2022-10-31T08:32:33.580Z,54.63
2022-10-31T08:33:32.570Z,55.24
2022-10-31T08:34:32.574Z,54.16
2022-10-31T08:35:32.559Z,53.82
2022-10-31T08:36:32.557Z,54.61
2022-10-31T08:37:32.541Z,54.68
2022-10-31T08:38:32.526Z,52.81
2022-10-31T08:39:32.534Z,53.93
2022-10-31T08:40:32.518Z,52.15
2022-10-31T08:41:32.506Z,53.23
2022-10-31T08:42:32.498Z,53.10
2022-10-31T08:43:32.494Z,54.48
2022-10-31T08:44:32.505Z,52.37
2022-10-31T08:45:32.483Z,53.21
2022-10-31T08:46:32.470Z,52.53
2022-10-31T08:47:32.466Z,52.89
2022-10-31T08:48:32.457Z,52.68
2022-10-31T08:49:32.479Z,53.78
2022-10-31T08:50:32.451Z,51.40
2022-10-31T08:51:32.502Z,50.91
2022-10-31T08:52:58.732Z,52.27
2022-10-31T08:53:34.436Z,52.45
2022-10-31T08:54:32.432Z,51.49
2022-10-31T08:55:32.437Z,52.28
2022-10-31T08:56:32.421Z,52.91
2022-10-31T08:57:32.398Z,51.32
2022-10-31T08:58:36.291Z,52.43
2022-10-31T08:59:34.397Z,52.12
2022-10-31T09:00:32.449Z,51.92
2022-10-31T09:01:32.519Z,51.85
2022-10-31T09:02:32.374Z,51.77
2022-10-31T09:03:32.361Z,51.66
2022-10-31T09:04:32.361Z,51.88
2022-10-31T09:05:32.443Z,51.99
2022-10-31T09:06:32.353Z,51.16
2022-10-31T09:07:32.341Z,52.18
2022-10-31T09:08:32.344Z,52.09
2022-10-31T09:09:32.326Z,51.90
2022-10-31T09:10:32.347Z,51.38
2022-10-31T09:11:32.320Z,52.35
2022-10-31T09:12:32.315Z,52.67
2022-10-31T09:13:32.294Z,54.08
2022-10-31T09:14:32.302Z,52.83
2022-10-31T09:15:32.282Z,51.68
2022-10-31T09:16:32.294Z,50.97
2022-10-31T09:17:32.277Z,51.29
2022-10-31T09:18:32.261Z,51.43
2022-10-31T09:19:32.257Z,50.40
2022-10-31T09:20:32.281Z,52.47
2022-10-31T09:21:32.252Z,51.01
2022-10-31T09:22:32.249Z,50.82
2022-10-31T09:23:32.249Z,51.46
2022-10-31T09:24:32.233Z,50.69
2022-10-31T09:25:32.246Z,51.22
2022-10-31T09:26:32.227Z,51.84
2022-10-31T09:27:32.205Z,51.92
2022-10-31T09:28:32.190Z,51.45
2022-10-31T09:29:32.193Z,49.43
2022-10-31T09:30:32.188Z,51.15
2022-10-31T09:31:32.227Z,50.30
2022-10-31T09:32:32.177Z,51.15
2022-10-31T09:33:32.165Z,49.70
2022-10-31T09:34:32.165Z,51.44
2022-10-31T09:35:32.159Z,50.74
2022-10-31T09:36:32.177Z,50.09
2022-10-31T09:37:32.148Z,53.59
2022-10-31T09:38:32.149Z,52.59
2022-10-31T09:39:32.134Z,51.14
2022-10-31T09:40:32.125Z,51.28
2022-10-31T09:41:32.138Z,49.22
2022-10-31T09:42:32.110Z,51.84
2022-10-31T09:43:32.113Z,51.58
2022-10-31T09:44:32.101Z,49.50
2022-10-31T09:45:32.097Z,50.05
2022-10-31T09:46:32.097Z,49.65
2022-10-31T09:47:32.130Z,49.86
2022-10-31T09:48:32.079Z,49.58
2022-10-31T09:49:32.161Z,49.85
2022-10-31T09:50:32.073Z,50.24
2022-10-31T09:51:32.069Z,48.45
2022-10-31T09:52:32.066Z,47.75
2022-10-31T09:53:32.060Z,48.85
2022-10-31T09:54:32.050Z,49.00
2022-10-31T09:55:32.043Z,49.92
2022-10-31T09:56:32.032Z,50.22
2022-10-31T09:57:32.045Z,50.81
2022-10-31T09:58:34.095Z,49.11
2022-10-31T09:59:32.025Z,48.69
2022-10-31T10:00:32.055Z,48.87
2022-10-31T10:01:32.166Z,49.83
2022-10-31T10:02:32.037Z,50.15
2022-10-31T10:03:32.006Z,50.24
2022-10-31T10:04:31.995Z,49.68
2022-10-31T10:05:31.990Z,49.10
2022-10-31T10:06:31.982Z,49.02
2022-10-31T10:07:31.987Z,49.60
2022-10-31T10:08:31.985Z,48.77
2022-10-31T10:09:31.992Z,49.85
2022-10-31T10:10:31.954Z,51.38
2022-10-31T10:11:31.953Z,52.55
2022-10-31T10:12:31.947Z,51.48
2022-10-31T10:13:31.953Z,51.13
2022-10-31T10:14:31.938Z,50.75
2022-10-31T10:15:31.925Z,50.97
2022-10-31T10:16:31.918Z,49.96
2022-10-31T10:17:31.917Z,51.33
2022-10-31T10:18:31.929Z,50.98
2022-10-31T10:19:31.923Z,50.84
2022-10-31T10:20:31.898Z,50.81
2022-10-31T10:21:31.898Z,50.63
2022-10-31T10:22:31.910Z,50.26
2022-10-31T10:23:31.883Z,51.85
2022-10-31T10:24:31.893Z,50.15
2022-10-31T10:25:31.870Z,50.94
2022-10-31T10:27:31.864Z,49.25
2022-10-31T10:28:31.853Z,49.74
2022-10-31T10:29:31.845Z,50.26
2022-10-31T10:30:31.859Z,47.71
2022-10-31T10:31:31.843Z,52.23
2022-10-31T10:32:31.830Z,51.16
2022-10-31T10:33:31.830Z,50.05
2022-10-31T10:34:31.825Z,49.00
2022-10-31T10:35:31.821Z,50.52
2022-10-31T10:36:31.813Z,51.11
2022-10-31T10:37:31.834Z,51.24
2022-10-31T10:38:31.801Z,49.92
2022-10-31T10:39:31.801Z,49.56
2022-10-31T10:40:31.826Z,50.15
2022-10-31T10:41:34.260Z,51.85
2022-10-31T10:42:32.787Z,51.22
2022-10-31T10:43:31.797Z,48.94
2022-10-31T10:44:31.808Z,47.42
2022-10-31T10:45:31.769Z,50.07
2022-10-31T10:46:31.777Z,49.20
2022-10-31T10:47:31.780Z,49.54
2022-10-31T10:48:31.749Z,48.49
2022-10-31T10:49:32.757Z,47.94
2022-10-31T10:50:31.744Z,48.47
2022-10-31T10:51:46.356Z,48.47
2022-10-31T10:52:46.056Z,48.11
2022-10-31T10:53:33.732Z,47.87
2022-10-31T10:54:31.725Z,47.96
2022-10-31T10:55:31.721Z,48.33
2022-10-31T10:56:31.735Z,49.70
2022-10-31T10:57:31.714Z,50.49
2022-10-31T10:58:31.712Z,50.33
2022-10-31T10:59:31.697Z,51.90
2022-10-31T11:00:31.810Z,50.12
2022-10-31T11:01:31.696Z,50.83
2022-10-31T11:02:31.697Z,50.54
2022-10-31T11:03:31.672Z,49.38
2022-10-31T11:04:31.683Z,50.33
2022-10-31T11:05:31.668Z,50.04
2022-10-31T11:06:31.663Z,50.18
2022-10-31T11:07:31.652Z,49.26
2022-10-31T11:08:31.651Z,49.68
2022-10-31T11:09:31.631Z,50.02
2022-10-31T11:10:31.680Z,50.79
2022-10-31T11:11:31.644Z,49.97
2022-10-31T11:12:31.636Z,47.10
2022-10-31T11:13:31.644Z,49.67
2022-10-31T11:14:31.621Z,49.93
2022-10-31T11:15:31.617Z,49.60
2022-10-31T11:16:33.600Z,49.05
2022-10-31T11:17:32.612Z,50.89
2022-10-31T11:18:31.617Z,49.93
2022-10-31T11:19:31.598Z,53.43
2022-10-31T11:20:31.587Z,52.07
2022-10-31T11:21:31.576Z,50.42
2022-10-31T11:22:31.582Z,53.15
2022-10-31T11:23:31.577Z,51.95
2022-10-31T11:24:31.568Z,53.25
2022-10-31T11:25:31.570Z,51.68
2022-10-31T11:26:31.560Z,50.21
2022-10-31T11:27:31.553Z,50.72
2022-10-31T11:28:31.556Z,50.31
2022-10-31T11:29:31.568Z,49.26
2022-10-31T11:30:31.537Z,49.91
2022-10-31T11:31:31.542Z,49.30
2022-10-31T11:32:31.533Z,49.22
2022-10-31T11:33:31.526Z,48.00
2022-10-31T11:34:31.541Z,49.98
2022-10-31T11:35:31.619Z,48.48
2022-10-31T11:36:31.513Z,48.84
2022-10-31T11:37:31.512Z,48.60
2022-10-31T11:38:31.503Z,51.27
2022-10-31T11:39:31.501Z,50.35
2022-10-31T11:40:31.511Z,48.21
2022-10-31T11:41:31.500Z,49.01
2022-10-31T11:42:31.491Z,48.68
2022-10-31T11:43:31.484Z,49.20
2022-10-31T11:44:31.483Z,49.41
2022-10-31T11:45:31.494Z,51.78
2022-10-31T11:46:31.486Z,51.29
2022-10-31T11:47:31.645Z,51.65
2022-10-31T11:48:31.469Z,50.04
2022-10-31T11:49:31.480Z,50.00
2022-10-31T11:50:31.480Z,52.51
2022-10-31T11:51:31.496Z,50.65
2022-10-31T11:52:31.459Z,51.08
2022-10-31T11:53:31.519Z,52.04
2022-10-31T11:54:31.456Z,51.25
2022-10-31T11:55:31.428Z,51.37
2022-10-31T11:56:31.420Z,51.14
2022-10-31T11:57:31.807Z,49.98
2022-10-31T11:58:31.411Z,50.55
2022-10-31T11:59:31.404Z,51.06
2022-10-31T12:00:31.436Z,50.13
2022-10-31T12:01:32.428Z,50.52
2022-10-31T12:02:31.485Z,50.30
2022-10-31T12:03:31.409Z,51.03
2022-10-31T12:04:31.544Z,49.20
2022-10-31T12:05:31.404Z,49.17
2022-10-31T12:06:31.375Z,50.86
2022-10-31T12:07:31.403Z,50.07
2022-10-31T12:08:31.375Z,49.48
2022-10-31T12:09:31.359Z,50.59
2022-10-31T12:10:31.351Z,50.81
2022-10-31T12:11:31.343Z,52.05
2022-10-31T12:12:31.342Z,52.85
2022-10-31T12:13:31.352Z,51.51
2022-10-31T12:14:31.335Z,51.29
2022-10-31T12:15:31.328Z,52.35
2022-10-31T12:16:31.327Z,51.96
2022-10-31T12:17:31.325Z,51.99
2022-10-31T12:18:31.314Z,53.12
2022-10-31T12:19:31.329Z,51.31
2022-10-31T12:20:31.324Z,51.44
2022-10-31T12:21:31.303Z,51.56
2022-10-31T12:22:31.291Z,51.81
2022-10-31T12:23:31.290Z,52.03
2022-10-31T12:24:31.312Z,51.67
2022-10-31T12:25:31.280Z,52.77
2022-10-31T12:26:31.283Z,53.45
2022-10-31T12:27:31.275Z,52.71
2022-10-31T12:28:31.262Z,54.41
2022-10-31T12:29:31.255Z,53.80
2022-10-31T12:30:31.263Z,50.56
2022-10-31T12:31:31.360Z,52.97
2022-10-31T12:32:31.241Z,52.13
2022-10-31T12:33:31.237Z,52.51
2022-10-31T12:34:31.228Z,53.22
2022-10-31T12:35:31.325Z,52.67
2022-10-31T12:36:31.214Z,51.89
2022-10-31T12:37:31.208Z,52.44
2022-10-31T12:38:31.204Z,51.80
2022-10-31T12:39:31.199Z,53.30
2022-10-31T12:40:31.216Z,52.60
2022-10-31T12:41:31.203Z,53.29
2022-10-31T12:42:31.179Z,51.78
2022-10-31T12:43:31.183Z,52.52
2022-10-31T12:44:31.173Z,52.74
2022-10-31T12:45:31.174Z,52.31
2022-10-31T12:46:31.163Z,53.32
2022-10-31T12:47:31.156Z,52.66
2022-10-31T12:48:31.148Z,53.55
2022-10-31T12:49:31.140Z,52.56
2022-10-31T12:50:31.128Z,52.04
2022-10-31T12:51:31.143Z,54.34
2022-10-31T12:52:31.125Z,51.96
2022-10-31T12:53:31.124Z,52.38
2022-10-31T12:54:31.111Z,52.71